Time;durP1;ratioP1;P1;durP2;ratioP2;P2;SDS_P1;SDS_P2;PMS_P1;PMS_P2;Temp;Humidity;BMP_temperature;BMP_pressure;BME280_temperature;BME280_humidity;BME280_pressure;Samples;Min_cycle;Max_cycle;Signal;HPM_P1;HPM_P2
2022/01/01 00:02:45;;;;;;;1.17;0.87;;;11.70;99.90;;;;;;5036819;28;20447;-75
2022/01/01 00:05:32;;;;;;;2.10;1.90;;;11.70;99.90;;;;;;5034212;28;20514;-74
2022/01/01 00:08:19;;;;;;;0.50;0.50;;;11.80;99.90;;;;;;5035274;28;20845;-74
2022/01/01 00:11:07;;;;;;;0.40;0.40;;;11.90;99.90;;;;;;5035823;28;20421;-74
2022/01/01 00:13:54;;;;;;;0.63;0.63;;;11.80;99.90;;;;;;5035654;28;20464;-73
2022/01/01 00:16:40;;;;;;;10.70;3.03;;;11.80;99.90;;;;;;5035418;28;20457;-73
2022/01/01 00:19:27;;;;;;;0.97;0.97;;;11.80;99.90;;;;;;5035506;28;20429;-73
2022/01/01 00:22:15;;;;;;;6.13;5.53;;;11.80;99.90;;;;;;5035447;28;20421;-76
2022/01/01 00:25:01;;;;;;;0.40;0.40;;;11.80;99.90;;;;;;5034798;28;20457;-74
2022/01/01 00:27:50;;;;;;;3.33;2.97;;;11.80;99.90;;;;;;5034793;28;20456;-73
2022/01/01 00:30:36;;;;;;;2.90;0.97;;;11.80;99.90;;;;;;5034472;28;20474;-73
2022/01/01 00:33:25;;;;;;;2.73;1.37;;;11.80;99.90;;;;;;5038707;28;20433;-74
2022/01/01 00:36:11;;;;;;;0.47;0.47;;;11.70;99.90;;;;;;5038900;28;20425;-73
2022/01/01 00:38:58;;;;;;;0.53;0.53;;;11.70;99.90;;;;;;5038361;28;20417;-75
2022/01/01 00:41:47;;;;;;;3.43;2.20;;;11.70;99.90;;;;;;5039524;28;20509;-73
2022/01/01 00:44:35;;;;;;;0.77;0.77;;;11.70;99.90;;;;;;5038389;28;20457;-74
2022/01/01 00:47:22;;;;;;;5.23;4.60;;;11.70;99.90;;;;;;5039052;28;20456;-74
2022/01/01 00:50:10;;;;;;;2.20;1.40;;;11.70;99.90;;;;;;5038849;28;20421;-73
2022/01/01 00:52:58;;;;;;;3.60;1.90;;;11.70;99.90;;;;;;5038548;28;20437;-76
2022/01/01 00:55:45;;;;;;;0.40;0.40;;;11.70;99.90;;;;;;5038432;28;20456;-74
2022/01/01 00:58:32;;;;;;;5.83;2.90;;;11.70;99.90;;;;;;5038449;28;20421;-73
2022/01/01 01:01:21;;;;;;;1.27;1.27;;;11.60;99.90;;;;;;5047529;28;20435;-74
2022/01/01 01:04:08;;;;;;;0.70;0.70;;;11.70;99.90;;;;;;5058144;28;20459;-72
2022/01/01 01:06:55;;;;;;;2.70;2.07;;;11.70;99.90;;;;;;5057311;28;20951;-72
2022/01/01 01:09:41;;;;;;;1.73;1.47;;;11.80;99.90;;;;;;5057507;28;20456;-73
2022/01/01 01:12:38;;;;;;;0.60;0.60;;;11.70;99.90;;;;;;5057790;28;20936;-73
2022/01/01 01:15:25;;;;;;;1.07;0.97;;;11.70;99.90;;;;;;5057136;28;20451;-74
2022/01/01 01:18:13;;;;;;;0.67;0.67;;;11.70;99.90;;;;;;5056264;28;20462;-75
2022/01/01 01:21:00;;;;;;;2.60;2.00;;;11.70;99.90;;;;;;5055253;28;20486;-73
2022/01/01 01:23:48;;;;;;;2.50;1.37;;;11.70;99.90;;;;;;5056447;28;20431;-72
2022/01/01 01:26:35;;;;;;;2.00;1.17;;;11.70;99.90;;;;;;5056431;28;20774;-74
2022/01/01 01:29:23;;;;;;;2.50;1.57;;;11.70;99.90;;;;;;5057103;28;20477;-74
2022/01/01 01:32:10;;;;;;;0.40;0.40;;;11.70;99.90;;;;;;5057857;28;20832;-74
2022/01/01 01:34:58;;;;;;;2.70;2.10;;;11.70;99.90;;;;;;5057670;28;20443;-75
2022/01/01 01:37:45;;;;;;;2.93;2.20;;;11.70;99.90;;;;;;5057022;28;20443;-74
2022/01/01 01:40:32;;;;;;;3.03;2.73;;;11.70;99.90;;;;;;5056710;28;20466;-74
2022/01/01 01:43:19;;;;;;;2.97;1.73;;;11.60;99.90;;;;;;5056179;28;20494;-73
2022/01/01 01:46:09;;;;;;;3.23;2.90;;;11.70;99.90;;;;;;5056150;28;20436;-74
2022/01/01 01:48:56;;;;;;;2.33;1.63;;;11.70;99.90;;;;;;5056237;28;20471;-72
2022/01/01 01:51:44;;;;;;;1.93;1.83;;;11.70;99.90;;;;;;5055865;28;20782;-73
2022/01/01 01:54:33;;;;;;;4.50;1.93;;;11.70;99.90;;;;;;5056107;28;20458;-74
2022/01/01 01:57:20;;;;;;;2.40;1.00;;;11.70;99.90;;;;;;5055729;28;20424;-73
2022/01/01 02:00:19;;;;;;;2.20;2.07;;;11.70;99.90;;;;;;5057325;28;20424;-73
2022/01/01 02:03:09;;;;;;;4.93;1.93;;;11.70;99.90;;;;;;5056631;28;20782;-75
2022/01/01 02:05:56;;;;;;;5.97;4.10;;;11.70;99.90;;;;;;5057164;28;20466;-73
2022/01/01 02:08:45;;;;;;;1.33;1.23;;;11.70;99.90;;;;;;5056911;28;20511;-73
2022/01/01 02:11:33;;;;;;;2.60;2.40;;;11.70;99.90;;;;;;5055206;28;20428;-73
2022/01/01 02:14:32;;;;;;;1.30;1.20;;;11.70;99.90;;;;;;5054036;28;20490;-73
2022/01/01 02:17:19;;;;;;;1.53;1.43;;;11.70;99.90;;;;;;5049007;28;20432;-73
2022/01/01 02:20:13;;;;;;;0.40;0.40;;;11.70;99.90;;;;;;5055249;28;20420;-75
2022/01/01 02:23:01;;;;;;;1.30;1.30;;;11.60;99.90;;;;;;5055980;28;20486;-73
2022/01/01 02:25:50;;;;;;;1.80;1.17;;;11.60;99.90;;;;;;5056500;28;20471;-74
2022/01/01 02:28:37;;;;;;;4.40;3.30;;;11.60;99.90;;;;;;5056792;28;20991;-74
2022/01/01 02:31:24;;;;;;;1.13;1.03;;;11.70;99.90;;;;;;5057194;28;20436;-74
2022/01/01 02:34:12;;;;;;;0.77;0.70;;;11.70;99.90;;;;;;5056985;28;20908;-78
2022/01/01 02:37:00;;;;;;;1.17;1.17;;;11.70;99.90;;;;;;5056435;28;20417;-73
2022/01/01 02:39:47;;;;;;;0.53;0.53;;;11.60;99.90;;;;;;5055991;28;20951;-72
2022/01/01 02:42:34;;;;;;;1.00;1.00;;;11.70;99.90;;;;;;5056798;28;20511;-75
2022/01/01 02:45:21;;;;;;;3.70;1.17;;;11.80;99.90;;;;;;5056501;28;20531;-74
2022/01/01 02:48:08;;;;;;;0.80;0.80;;;11.60;99.90;;;;;;5055756;28;20470;-73
2022/01/01 02:50:55;;;;;;;0.90;0.90;;;11.70;99.90;;;;;;5055800;28;20481;-73
2022/01/01 02:53:45;;;;;;;0.53;0.53;;;11.60;99.90;;;;;;5057220;28;20420;-74
2022/01/01 02:56:32;;;;;;;0.77;0.77;;;11.80;99.90;;;;;;5056530;28;20948;-74
2022/01/01 02:59:19;;;;;;;1.17;1.03;;;11.60;99.90;;;;;;5056052;28;20424;-73
2022/01/01 03:02:06;;;;;;;3.00;2.70;;;11.60;99.90;;;;;;5040846;28;20519;-73
2022/01/01 03:04:52;;;;;;;0.90;0.90;;;11.60;99.90;;;;;;5036197;28;20464;-75
2022/01/01 03:07:39;;;;;;;0.40;0.40;;;11.60;99.90;;;;;;5035887;28;20455;-74
2022/01/01 03:10:27;;;;;;;2.37;1.60;;;11.60;99.90;;;;;;5036427;28;20499;-72
2022/01/01 03:13:14;;;;;;;1.20;1.17;;;11.60;99.90;;;;;;5036098;28;20995;-74
2022/01/01 03:16:01;;;;;;;4.07;2.33;;;11.70;99.90;;;;;;5036739;28;20473;-73
2022/01/01 03:18:48;;;;;;;1.20;1.20;;;11.70;99.90;;;;;;5036688;28;20421;-75
2022/01/01 03:21:35;;;;;;;6.63;1.33;;;11.60;99.90;;;;;;5036847;28;20491;-74
2022/01/01 03:24:22;;;;;;;1.10;1.00;;;11.70;99.90;;;;;;5037057;28;20882;-74
2022/01/01 03:27:10;;;;;;;1.37;1.27;;;11.60;99.90;;;;;;5036950;28;20936;-73
2022/01/01 03:29:57;;;;;;;4.47;2.20;;;11.60;99.90;;;;;;5036043;28;20919;-75
2022/01/01 03:32:44;;;;;;;0.40;0.40;;;11.60;99.90;;;;;;5036325;28;20519;-75
2022/01/01 03:35:31;;;;;;;0.60;0.60;;;11.70;99.90;;;;;;5036155;28;20921;-74
2022/01/01 03:38:18;;;;;;;1.17;1.17;;;11.60;99.90;;;;;;5036312;28;20479;-74
2022/01/01 03:41:05;;;;;;;1.20;1.20;;;11.60;99.90;;;;;;5036490;28;20848;-73
2022/01/01 03:43:53;;;;;;;0.53;0.53;;;11.70;99.90;;;;;;5036122;28;20420;-74
2022/01/01 03:46:40;;;;;;;1.87;1.67;;;11.70;99.90;;;;;;5035883;28;20444;-73
2022/01/01 03:49:27;;;;;;;2.73;1.53;;;11.60;99.90;;;;;;5034759;28;20846;-75
2022/01/01 03:52:14;;;;;;;7.13;1.60;;;11.70;99.90;;;;;;5036163;28;20505;-74
2022/01/01 03:55:01;;;;;;;1.90;1.80;;;11.70;99.90;;;;;;5036370;28;20981;-73
2022/01/01 03:57:48;;;;;;;10.07;3.77;;;11.80;99.90;;;;;;5036179;28;20428;-73
2022/01/01 04:00:36;;;;;;;0.70;0.70;;;11.70;99.90;;;;;;5035684;28;20429;-75
2022/01/01 04:03:23;;;;;;;0.50;0.50;;;11.70;99.90;;;;;;5035744;28;20429;-72
2022/01/01 04:06:10;;;;;;;2.60;2.50;;;11.70;99.90;;;;;;5035185;28;20425;-72
2022/01/01 04:08:57;;;;;;;0.97;0.77;;;11.70;99.90;;;;;;5034982;28;20472;-72
2022/01/01 04:11:44;;;;;;;1.67;1.53;;;11.70;99.90;;;;;;5034968;28;20451;-73
2022/01/01 04:14:31;;;;;;;0.40;0.40;;;11.70;99.90;;;;;;5035811;28;20453;-73
2022/01/01 04:17:20;;;;;;;0.73;0.73;;;11.70;99.90;;;;;;5034702;28;20494;-72
2022/01/01 04:20:08;;;;;;;2.20;1.33;;;11.80;99.90;;;;;;5035834;28;20433;-74
2022/01/01 04:22:57;;;;;;;3.53;2.53;;;11.70;99.90;;;;;;5036602;28;20425;-73
2022/01/01 04:25:44;;;;;;;2.30;1.63;;;11.70;99.90;;;;;;5053775;28;20490;-74
2022/01/01 04:28:31;;;;;;;1.33;1.00;;;11.70;99.90;;;;;;5054762;28;20534;-73
2022/01/01 04:31:18;;;;;;;0.40;0.40;;;11.70;99.90;;;;;;5055673;28;20482;-75
2022/01/01 04:34:06;;;;;;;1.07;1.07;;;11.80;99.90;;;;;;5055069;28;20440;-72
2022/01/01 04:37:00;;;;;;;2.60;1.27;;;11.80;99.90;;;;;;5055970;28;20451;-72
2022/01/01 04:39:50;;;;;;;1.33;1.20;;;11.80;99.90;;;;;;5056047;28;20786;-74
2022/01/01 04:42:37;;;;;;;1.17;1.17;;;11.70;99.90;;;;;;5056100;28;20428;-72
2022/01/01 04:45:24;;;;;;;3.70;3.33;;;11.80;99.90;;;;;;5056425;28;20475;-74
2022/01/01 04:48:11;;;;;;;4.33;3.00;;;11.80;99.90;;;;;;5054424;28;20416;-74
2022/01/01 04:50:59;;;;;;;1.87;1.70;;;11.80;99.90;;;;;;5054616;28;20509;-71
2022/01/01 04:53:46;;;;;;;4.43;3.17;;;11.80;99.90;;;;;;5055265;28;20510;-73
2022/01/01 04:56:34;;;;;;;3.50;2.30;;;11.80;99.90;;;;;;5054953;28;20514;-74
2022/01/01 04:59:21;;;;;;;1.80;1.60;;;11.80;99.90;;;;;;5055420;28;20428;-73
2022/01/01 05:02:08;;;;;;;5.60;1.67;;;11.90;99.90;;;;;;5038809;28;20437;-72
2022/01/01 05:04:55;;;;;;;1.60;1.47;;;11.80;99.90;;;;;;5036169;28;20457;-74
2022/01/01 05:07:44;;;;;;;3.40;3.13;;;11.80;99.90;;;;;;5036615;28;20453;-72
2022/01/01 05:10:31;;;;;;;1.07;1.07;;;11.80;99.90;;;;;;5036664;28;20516;-73
2022/01/01 05:13:19;;;;;;;3.00;1.77;;;11.80;99.90;;;;;;5036771;28;20933;-72
2022/01/01 05:16:06;;;;;;;1.37;1.07;;;11.80;99.90;;;;;;5035821;28;20432;-74
2022/01/01 05:18:53;;;;;;;0.93;0.93;;;11.90;99.90;;;;;;5038002;28;20779;-74
2022/01/01 05:21:40;;;;;;;1.53;1.00;;;11.80;99.90;;;;;;5040569;28;20425;-72
2022/01/01 05:24:28;;;;;;;0.50;0.50;;;11.80;99.90;;;;;;5040279;28;20492;-74
2022/01/01 05:27:15;;;;;;;1.43;0.97;;;11.80;99.90;;;;;;5040753;28;20432;-73
2022/01/01 05:30:04;;;;;;;0.57;0.57;;;11.80;99.90;;;;;;5040185;28;21186;-73
2022/01/01 05:32:51;;;;;;;1.00;0.90;;;11.80;99.90;;;;;;5039896;28;20449;-72
2022/01/01 05:35:37;;;;;;;1.00;1.00;;;11.80;99.90;;;;;;5039422;28;20441;-72
2022/01/01 05:38:24;;;;;;;2.93;2.00;;;11.80;99.90;;;;;;5039753;28;20433;-73
2022/01/01 05:41:13;;;;;;;0.50;0.50;;;11.90;99.90;;;;;;5039872;28;20417;-72
2022/01/01 05:44:00;;;;;;;1.43;1.33;;;11.90;99.90;;;;;;5039058;28;20515;-73
2022/01/01 05:46:47;;;;;;;2.40;2.20;;;11.80;99.90;;;;;;5039729;28;20463;-73
2022/01/01 05:49:34;;;;;;;0.40;0.40;;;11.80;99.90;;;;;;5039292;28;20457;-73
2022/01/01 05:52:20;;;;;;;0.73;0.60;;;11.90;99.90;;;;;;5038919;28;20855;-74
2022/01/01 05:55:08;;;;;;;0.70;0.70;;;11.80;99.90;;;;;;5038600;28;20452;-72
2022/01/01 05:57:56;;;;;;;0.40;0.40;;;11.90;99.90;;;;;;5039493;28;20475;-73
2022/01/01 06:00:43;;;;;;;1.80;1.70;;;11.80;99.90;;;;;;5043676;28;20566;-73
2022/01/01 06:03:31;;;;;;;0.57;0.57;;;11.90;99.90;;;;;;5058309;28;20424;-72
2022/01/01 06:06:18;;;;;;;1.07;0.80;;;11.90;99.90;;;;;;5058919;28;20412;-73
2022/01/01 06:09:05;;;;;;;1.73;1.63;;;11.80;99.90;;;;;;5058418;28;20459;-74
2022/01/01 06:11:52;;;;;;;0.50;0.50;;;11.90;99.90;;;;;;5058739;28;20427;-73
2022/01/01 06:14:40;;;;;;;2.30;1.57;;;12.00;99.90;;;;;;5058067;28;21026;-72
2022/01/01 06:17:27;;;;;;;1.80;1.43;;;11.80;99.90;;;;;;5058714;28;20609;-73
2022/01/01 06:20:14;;;;;;;2.67;2.00;;;11.90;99.90;;;;;;5057379;28;20424;-74
2022/01/01 06:23:02;;;;;;;4.10;2.40;;;11.90;99.90;;;;;;5057909;28;20432;-74
2022/01/01 06:25:50;;;;;;;10.60;3.43;;;11.90;99.90;;;;;;5057737;28;20976;-73
2022/01/01 06:28:36;;;;;;;1.17;1.17;;;11.90;99.90;;;;;;5057119;28;20432;-73
2022/01/01 06:31:25;;;;;;;0.40;0.40;;;11.90;99.90;;;;;;5057378;28;20474;-73
2022/01/01 06:34:12;;;;;;;2.40;2.20;;;11.90;99.90;;;;;;5057338;28;20443;-73
2022/01/01 06:36:58;;;;;;;0.40;0.40;;;11.80;99.90;;;;;;5058489;28;20688;-73
2022/01/01 06:39:45;;;;;;;1.03;0.93;;;11.90;99.90;;;;;;5056956;28;20998;-74
2022/01/01 06:42:32;;;;;;;0.73;0.73;;;11.90;99.90;;;;;;5058287;28;20444;-74
2022/01/01 06:45:19;;;;;;;2.43;1.93;;;11.90;99.90;;;;;;5058236;28;20494;-72
2022/01/01 06:48:08;;;;;;;0.60;0.60;;;11.90;99.90;;;;;;5057610;28;20432;-73
2022/01/01 06:50:55;;;;;;;0.70;0.70;;;11.90;99.90;;;;;;5057592;28;20427;-73
2022/01/01 06:53:42;;;;;;;2.27;2.13;;;11.80;99.90;;;;;;5057241;28;20424;-73
2022/01/01 06:56:28;;;;;;;0.40;0.40;;;11.90;99.90;;;;;;5057266;28;20840;-73
2022/01/01 06:59:15;;;;;;;0.40;0.40;;;11.90;99.90;;;;;;5063808;28;20420;-72
2022/01/01 07:02:02;;;;;;;0.70;0.70;;;11.90;99.90;;;;;;5050859;28;20436;-72
2022/01/01 07:04:51;;;;;;;0.83;0.83;;;11.90;99.90;;;;;;5046304;28;20879;-73
2022/01/01 07:07:38;;;;;;;4.03;1.90;;;11.90;99.90;;;;;;5046017;28;20433;-73
2022/01/01 07:10:25;;;;;;;0.40;0.40;;;11.90;99.90;;;;;;5039534;28;20638;-74
2022/01/01 07:13:12;;;;;;;0.60;0.60;;;11.90;99.90;;;;;;5038517;28;20484;-71
2022/01/01 07:15:59;;;;;;;0.50;0.50;;;11.90;99.90;;;;;;5038583;28;20468;-74
2022/01/01 07:18:46;;;;;;;2.00;1.53;;;11.90;99.90;;;;;;5037376;28;20483;-74
2022/01/01 07:21:34;;;;;;;3.33;3.03;;;11.90;99.90;;;;;;5037032;28;20514;-73
2022/01/01 07:24:21;;;;;;;0.80;0.80;;;11.80;99.90;;;;;;5037867;28;20977;-73
2022/01/01 07:27:08;;;;;;;1.23;1.13;;;11.90;99.90;;;;;;5036175;28;20448;-74
2022/01/01 07:29:55;;;;;;;2.00;1.37;;;11.90;99.90;;;;;;5037472;28;21054;-74
2022/01/01 07:32:44;;;;;;;1.30;1.20;;;11.90;99.90;;;;;;5038278;28;20429;-73
2022/01/01 07:35:35;;;;;;;1.33;1.33;;;11.90;99.90;;;;;;5031971;28;20499;-73
2022/01/01 07:38:24;;;;;;;3.87;2.10;;;11.90;99.90;;;;;;5035203;28;20437;-74
2022/01/01 07:41:11;;;;;;;0.50;0.50;;;11.80;99.90;;;;;;5035547;28;20825;-74
2022/01/01 07:43:58;;;;;;;1.17;1.17;;;11.90;99.90;;;;;;5036056;28;21016;-73
2022/01/01 07:46:45;;;;;;;1.57;1.47;;;11.90;99.90;;;;;;5035890;28;20451;-72
2022/01/01 07:49:32;;;;;;;1.10;1.10;;;12.00;99.90;;;;;;5036528;28;20468;-73
2022/01/01 07:52:19;;;;;;;4.73;1.90;;;12.10;99.90;;;;;;5037412;28;20928;-71
2022/01/01 07:55:09;;;;;;;0.40;0.40;;;11.90;99.90;;;;;;5037235;28;20957;-72
2022/01/01 07:57:55;;;;;;;0.83;0.83;;;12.00;99.90;;;;;;5035577;28;20425;-72
2022/01/01 08:00:42;;;;;;;0.57;0.57;;;12.00;99.90;;;;;;5040839;28;20452;-73
2022/01/01 08:03:29;;;;;;;0.43;0.43;;;12.00;99.90;;;;;;5056078;28;20489;-73
2022/01/01 08:06:16;;;;;;;0.40;0.40;;;12.10;99.90;;;;;;5056395;28;20423;-72
2022/01/01 08:09:04;;;;;;;1.83;1.47;;;12.10;99.90;;;;;;5055671;28;20424;-75
2022/01/01 08:11:54;;;;;;;3.47;2.83;;;12.10;99.90;;;;;;5056719;28;20559;-73
2022/01/01 08:14:41;;;;;;;9.30;1.73;;;12.20;99.90;;;;;;5056966;28;21030;-74
2022/01/01 08:17:28;;;;;;;2.00;1.90;;;12.20;99.90;;;;;;5056656;28;20436;-74
2022/01/01 08:20:15;;;;;;;0.80;0.80;;;12.10;99.90;;;;;;5055682;28;20481;-73
2022/01/01 08:23:02;;;;;;;2.30;2.10;;;12.10;99.90;;;;;;5055363;28;20432;-73
2022/01/01 08:25:49;;;;;;;1.17;1.17;;;12.20;99.90;;;;;;5055988;28;20459;-73
2022/01/01 08:28:37;;;;;;;2.63;2.40;;;12.20;99.90;;;;;;5056075;28;20459;-74
2022/01/01 08:31:24;;;;;;;0.40;0.40;;;12.30;99.90;;;;;;5055571;28;20488;-74
2022/01/01 08:34:11;;;;;;;0.40;0.40;;;12.30;99.90;;;;;;5055295;28;20513;-74
2022/01/01 08:36:58;;;;;;;0.50;0.50;;;12.30;99.90;;;;;;5056180;28;20420;-73
2022/01/01 08:39:44;;;;;;;12.50;1.83;;;12.30;99.90;;;;;;5056517;28;20424;-74
2022/01/01 08:42:31;;;;;;;6.90;2.77;;;12.30;99.90;;;;;;5056328;28;20424;-73
2022/01/01 08:45:20;;;;;;;2.43;2.23;;;12.30;99.90;;;;;;5055829;28;20464;-74
2022/01/01 08:48:09;;;;;;;0.40;0.40;;;12.30;99.90;;;;;;5056505;28;20428;-75
2022/01/01 08:50:56;;;;;;;3.50;2.50;;;12.30;99.90;;;;;;5056242;28;20464;-73
2022/01/01 08:53:43;;;;;;;0.50;0.50;;;12.40;99.90;;;;;;5058289;28;20956;-74
2022/01/01 08:56:30;;;;;;;0.40;0.40;;;12.40;99.90;;;;;;5059839;28;20431;-73
2022/01/01 08:59:17;;;;;;;0.50;0.40;;;12.30;99.90;;;;;;5059335;28;20450;-73
2022/01/01 09:02:05;;;;;;;1.47;1.37;;;12.30;99.90;;;;;;5044000;28;20425;-72
2022/01/01 09:04:53;;;;;;;2.30;2.20;;;12.30;99.90;;;;;;5041013;28;20866;-74
2022/01/01 09:07:40;;;;;;;6.33;2.40;;;12.30;99.90;;;;;;5037781;28;20516;-71
2022/01/01 09:10:26;;;;;;;2.30;2.10;;;12.30;99.90;;;;;;5037521;28;20465;-72
2022/01/01 09:13:14;;;;;;;0.77;0.73;;;12.40;99.90;;;;;;5037512;28;20455;-74
2022/01/01 09:16:01;;;;;;;3.87;3.00;;;12.40;99.90;;;;;;5037450;28;20495;-71
2022/01/01 09:18:49;;;;;;;1.03;0.93;;;12.40;99.90;;;;;;5037342;28;20975;-73
2022/01/01 09:21:37;;;;;;;1.93;1.30;;;12.50;99.90;;;;;;5036364;28;20467;-72
2022/01/01 09:24:23;;;;;;;7.27;2.40;;;12.50;99.90;;;;;;5037114;28;20503;-71
2022/01/01 09:27:10;;;;;;;1.33;1.00;;;12.50;99.90;;;;;;5037506;28;20424;-74
2022/01/01 09:29:57;;;;;;;0.60;0.60;;;12.50;99.90;;;;;;5036450;28;20518;-74
2022/01/01 09:32:44;;;;;;;2.80;0.93;;;12.50;99.90;;;;;;5037099;28;20433;-74
2022/01/01 09:35:32;;;;;;;2.90;2.37;;;12.60;99.90;;;;;;5037565;28;20563;-72
2022/01/01 09:38:19;;;;;;;3.27;1.30;;;12.50;99.90;;;;;;5037243;28;20461;-71
2022/01/01 09:41:06;;;;;;;0.50;0.50;;;12.50;99.90;;;;;;5036896;28;20421;-72
2022/01/01 09:43:54;;;;;;;2.00;1.50;;;12.50;99.90;;;;;;5037015;28;20452;-71
2022/01/01 09:46:44;;;;;;;1.00;1.00;;;12.50;99.90;;;;;;5037091;28;20530;-73
2022/01/01 09:49:31;;;;;;;0.40;0.40;;;12.50;99.90;;;;;;5034972;28;20424;-71
2022/01/01 09:52:20;;;;;;;0.47;0.47;;;12.50;99.90;;;;;;5037097;28;20849;-71
2022/01/01 09:55:09;;;;;;;0.60;0.60;;;12.60;99.90;;;;;;5035540;28;20465;-72
2022/01/01 09:57:56;;;;;;;0.73;0.73;;;12.60;99.90;;;;;;5035118;28;20509;-72
2022/01/01 10:00:43;;;;;;;1.47;1.37;;;12.60;99.90;;;;;;5040584;28;20424;-72
2022/01/01 10:03:33;;;;;;;4.87;2.60;;;12.60;99.90;;;;;;5055152;28;20428;-73
2022/01/01 10:06:22;;;;;;;10.13;5.37;;;12.60;99.90;;;;;;5055589;28;20471;-72
2022/01/01 10:09:10;;;;;;;1.13;1.13;;;12.60;99.90;;;;;;5056944;28;20430;-71
2022/01/01 10:11:57;;;;;;;6.03;1.57;;;12.70;99.90;;;;;;5055891;28;20420;-71
2022/01/01 10:14:46;;;;;;;1.80;1.70;;;12.60;99.90;;;;;;5055004;28;20513;-72
2022/01/01 10:17:33;;;;;;;0.70;0.70;;;12.70;99.90;;;;;;5057037;28;20497;-73
2022/01/01 10:20:19;;;;;;;2.20;1.63;;;12.70;99.90;;;;;;5056541;28;20443;-72
2022/01/01 10:23:11;;;;;;;1.63;0.93;;;12.70;99.90;;;;;;5055150;28;20424;-72
2022/01/01 10:29:23;;;;;;;1.53;1.43;;;12.80;99.90;;;;;;5056364;28;20412;-74
2022/01/01 10:32:11;;;;;;;0.77;0.77;;;12.90;99.90;;;;;;5056401;28;20904;-73
2022/01/01 10:34:59;;;;;;;0.50;0.50;;;12.90;99.90;;;;;;5055054;28;20453;-74
2022/01/01 10:37:46;;;;;;;1.63;1.50;;;12.90;99.90;;;;;;5054908;28;20425;-72
2022/01/01 10:40:33;;;;;;;0.60;0.50;;;13.00;99.90;;;;;;5054605;28;20517;-71
2022/01/01 10:43:23;;;;;;;0.40;0.40;;;13.00;99.90;;;;;;5056006;28;20428;-73
2022/01/01 10:46:13;;;;;;;1.07;1.03;;;13.10;99.90;;;;;;5055101;28;20432;-74
2022/01/01 10:49:09;;;;;;;5.47;2.30;;;13.10;99.90;;;;;;5054718;28;20999;-71
2022/01/01 10:51:56;;;;;;;3.03;2.70;;;13.20;99.90;;;;;;5054470;28;20463;-73
2022/01/01 10:54:59;;;;;;;0.60;0.60;;;13.30;99.90;;;;;;5056110;28;20526;-72
2022/01/01 10:57:55;;;;;;;1.37;1.27;;;13.30;99.90;;;;;;5055519;28;20427;-72
2022/01/01 11:00:43;;;;;;;0.40;0.40;;;13.50;99.90;;;;;;5050523;28;20883;-73
2022/01/01 11:03:36;;;;;;;2.23;2.07;;;13.50;99.90;;;;;;5033062;28;20524;-74
2022/01/01 11:06:23;;;;;;;4.20;1.53;;;13.50;99.90;;;;;;5032414;28;20436;-74
2022/01/01 11:09:15;;;;;;;2.73;1.73;;;13.50;99.90;;;;;;5031635;28;20511;-73
2022/01/01 11:12:03;;;;;;;0.50;0.50;;;13.50;99.90;;;;;;5032312;28;20472;-71
2022/01/01 11:14:50;;;;;;;1.37;1.27;;;13.40;99.90;;;;;;5031782;28;20845;-74
2022/01/01 11:17:39;;;;;;;0.50;0.50;;;13.50;99.90;;;;;;5031526;28;20520;-73
2022/01/01 11:20:30;;;;;;;0.40;0.40;;;13.50;99.90;;;;;;5032593;28;20436;-74
2022/01/01 11:23:18;;;;;;;3.37;2.20;;;13.40;99.90;;;;;;5033049;28;20440;-73
2022/01/01 11:26:05;;;;;;;0.40;0.40;;;13.20;99.90;;;;;;5033165;28;20463;-72
2022/01/01 11:28:52;;;;;;;0.40;0.40;;;13.20;99.90;;;;;;5032773;28;20515;-72
2022/01/01 11:31:41;;;;;;;5.23;1.23;;;13.10;99.90;;;;;;5032432;28;20476;-72
2022/01/01 11:34:31;;;;;;;0.80;0.80;;;13.10;99.90;;;;;;5033227;28;20449;-74
2022/01/01 11:37:22;;;;;;;0.90;0.87;;;13.10;99.90;;;;;;5032584;28;20819;-72
2022/01/01 11:40:10;;;;;;;1.07;1.07;;;13.10;99.90;;;;;;5032986;28;20831;-73
2022/01/01 11:42:57;;;;;;;0.40;0.40;;;13.20;99.90;;;;;;5031740;28;20938;-75
2022/01/01 11:45:46;;;;;;;1.03;0.97;;;13.40;99.90;;;;;;5031798;28;20445;-73
2022/01/01 11:48:36;;;;;;;4.10;2.67;;;13.50;99.90;;;;;;5032945;28;20426;-72
2022/01/01 11:51:32;;;;;;;1.50;1.40;;;13.40;99.90;;;;;;5032802;28;20977;-74
2022/01/01 11:54:27;;;;;;;1.00;1.00;;;13.40;99.90;;;;;;5033144;28;20850;-75
2022/01/01 11:57:19;;;;;;;3.63;2.50;;;13.40;99.90;;;;;;5032349;28;20429;-75
2022/01/01 12:00:13;;;;;;;1.53;1.43;;;13.40;99.90;;;;;;5033316;28;20590;-71
2022/01/01 12:03:12;;;;;;;1.10;1.00;;;13.40;99.90;;;;;;5033252;28;20533;-72
2022/01/01 12:06:03;;;;;;;0.50;0.50;;;13.30;99.90;;;;;;5033606;28;20552;-72
2022/01/01 12:08:51;;;;;;;2.70;1.57;;;13.30;99.90;;;;;;5032918;28;20579;-74
2022/01/01 12:11:38;;;;;;;2.20;2.10;;;13.40;99.90;;;;;;5033183;28;20560;-72
2022/01/01 12:14:28;;;;;;;0.90;0.90;;;13.30;99.90;;;;;;5032873;28;20571;-73
2022/01/01 12:17:18;;;;;;;1.00;1.00;;;13.40;99.90;;;;;;5033447;28;20432;-74
2022/01/01 12:20:09;;;;;;;10.40;3.43;;;13.30;99.90;;;;;;5033386;28;20796;-72
2022/01/01 12:23:01;;;;;;;4.53;1.90;;;13.30;99.90;;;;;;5031694;28;20484;-71
2022/01/01 12:25:52;;;;;;;1.27;1.17;;;13.30;99.90;;;;;;5034207;28;20510;-73
2022/01/01 12:28:40;;;;;;;6.23;2.50;;;13.30;99.90;;;;;;5036744;28;20780;-75
2022/01/01 12:31:28;;;;;;;0.90;0.90;;;13.40;99.90;;;;;;5036382;28;20467;-73
2022/01/01 12:34:17;;;;;;;1.00;1.00;;;13.40;99.90;;;;;;5036219;28;20447;-73
2022/01/01 12:37:13;;;;;;;1.90;1.13;;;13.40;99.90;;;;;;5036922;28;20445;-73
2022/01/01 12:40:02;;;;;;;0.40;0.40;;;13.40;99.90;;;;;;5035819;28;20436;-73
2022/01/01 12:42:50;;;;;;;0.60;0.50;;;13.40;99.90;;;;;;5035637;28;20576;-74
2022/01/01 12:45:38;;;;;;;0.40;0.40;;;13.40;99.90;;;;;;5036128;28;20461;-75
2022/01/01 12:48:27;;;;;;;2.80;0.93;;;13.40;99.90;;;;;;5036264;28;20430;-78
2022/01/01 12:51:16;;;;;;;4.97;2.50;;;13.40;99.90;;;;;;5035043;28;20516;-75
2022/01/01 12:54:05;;;;;;;3.07;1.27;;;13.40;99.90;;;;;;5035779;28;20451;-73
2022/01/01 12:56:52;;;;;;;1.43;1.33;;;13.40;99.90;;;;;;5034108;28;20560;-72
2022/01/01 12:59:42;;;;;;;0.40;0.40;;;13.40;99.90;;;;;;5035422;28;20428;-74
2022/01/01 13:02:29;;;;;;;3.13;2.03;;;13.40;99.90;;;;;;5055329;28;20463;-73
2022/01/01 13:05:16;;;;;;;5.07;2.30;;;13.40;99.90;;;;;;5054705;28;21006;-72
2022/01/01 13:08:06;;;;;;;0.40;0.40;;;13.50;99.90;;;;;;5053849;28;20424;-74
2022/01/01 13:10:55;;;;;;;9.53;2.43;;;13.60;99.90;;;;;;5053585;28;20468;-75
2022/01/01 13:13:42;;;;;;;3.40;1.33;;;13.60;99.90;;;;;;5054745;28;20436;-78
2022/01/01 13:16:31;;;;;;;0.40;0.40;;;13.60;99.90;;;;;;5054231;28;20431;-74
2022/01/01 13:19:17;;;;;;;1.17;1.07;;;13.60;99.90;;;;;;5054106;28;20428;-78
2022/01/01 13:22:08;;;;;;;2.20;2.10;;;13.60;99.90;;;;;;5053938;28;20919;-79
2022/01/01 13:24:56;;;;;;;0.40;0.40;;;13.60;99.90;;;;;;5054135;28;20835;-77
2022/01/01 13:27:47;;;;;;;0.60;0.60;;;13.50;99.90;;;;;;5054130;28;20799;-76
2022/01/01 13:30:34;;;;;;;0.50;0.50;;;13.50;99.90;;;;;;5052387;28;20424;-80
2022/01/01 13:33:25;;;;;;;0.40;0.40;;;13.50;99.90;;;;;;5053258;28;20436;-78
2022/01/01 13:36:11;;;;;;;0.40;0.40;;;13.50;99.90;;;;;;5053438;28;20490;-74
2022/01/01 13:38:59;;;;;;;0.40;0.40;;;13.50;99.90;;;;;;5051995;28;20482;-74
2022/01/01 13:41:48;;;;;;;0.70;0.70;;;13.40;99.90;;;;;;5052985;28;20474;-74
2022/01/01 13:44:42;;;;;;;0.40;0.40;;;13.40;99.90;;;;;;5053102;28;20984;-77
2022/01/01 13:47:31;;;;;;;0.40;0.40;;;13.50;99.90;;;;;;5053935;28;20434;-77
2022/01/01 13:50:20;;;;;;;0.40;0.40;;;13.40;99.90;;;;;;5054526;28;20933;-72
2022/01/01 13:53:08;;;;;;;0.93;0.70;;;13.40;99.90;;;;;;5053796;28;20428;-71
2022/01/01 13:55:56;;;;;;;0.40;0.40;;;13.30;99.90;;;;;;5054182;28;20534;-77
2022/01/01 13:58:45;;;;;;;0.50;0.50;;;13.30;99.90;;;;;;5054213;28;20750;-72
2022/01/01 14:01:34;;;;;;;0.40;0.40;;;13.30;99.90;;;;;;5041786;28;20500;-73
2022/01/01 14:04:24;;;;;;;0.40;0.40;;;13.30;99.90;;;;;;5034744;28;20492;-72
2022/01/01 14:07:15;;;;;;;0.40;0.40;;;13.20;99.90;;;;;;5034143;28;20433;-77
2022/01/01 14:10:05;;;;;;;0.40;0.40;;;13.20;99.90;;;;;;5033016;28;20530;-75
2022/01/01 14:12:52;;;;;;;0.40;0.40;;;13.30;99.90;;;;;;5034058;28;20473;-74
2022/01/01 14:15:39;;;;;;;0.97;0.80;;;13.40;99.90;;;;;;5033753;28;20536;-79
2022/01/01 14:18:28;;;;;;;0.40;0.40;;;13.30;99.90;;;;;;5032488;28;20425;-82
2022/01/01 14:21:15;;;;;;;0.50;0.50;;;13.20;99.90;;;;;;5033698;28;20925;-75
2022/01/01 14:24:05;;;;;;;0.40;0.40;;;13.20;99.90;;;;;;5034267;28;20449;-77
2022/01/01 14:26:54;;;;;;;0.40;0.40;;;13.20;99.90;;;;;;5032665;28;20514;-76
2022/01/01 14:29:41;;;;;;;0.40;0.40;;;13.40;99.90;;;;;;5033684;28;20425;-78
2022/01/01 14:32:28;;;;;;;0.40;0.40;;;13.30;99.90;;;;;;5032065;28;20457;-77
2022/01/01 14:35:15;;;;;;;0.40;0.40;;;13.20;99.90;;;;;;5032089;28;20519;-73
2022/01/01 14:38:02;;;;;;;0.40;0.40;;;13.20;99.90;;;;;;5032000;28;20448;-75